Warm Springs Summit, Nevada Weather observations

Data are for observation ending at time listed.
 Day   Time    Ave.   Ave.  Ave.  Vector   Max.   Stn.    Total    Solar   Ave.  
  of    of     Air    Rel.  Wind   Wind    Wind   Baro.  Precip.   Rad.    Soil  
Year   Day     Temp.  Hum.  Speed  Dir.    Gust   Pres.                    Temp. 
2015   (PST)    F      %     mph   deg.    mph     mb.     in.     W/m2     F   
------------------------------------------------------------------------------
  25    1:00   37.2    66    9.1    49     13.6   779.7    0.00       0    40.7
  25    1:10   37.0    66   11.3    53     18.1   779.7    0.00       0    40.7
  25    1:20   36.8    67    8.9    45     14.9   779.7    0.00       0    40.6
  25    1:30   36.7    67    9.1    44     17.1   779.8    0.00       0    40.5
  25    1:40   36.8    67   10.8    47     15.9   779.7    0.00       0    40.5
  25    1:50   36.1    69    9.8    45     15.8   779.7    0.00       0    40.4
  25    2:00   35.7    70    6.2    25     12.3   779.7    0.00       0    40.3
  25    2:10   35.7    71    5.3    24     12.4   779.7    0.00       0    40.3
  25    2:20   36.0    71    4.4    21      9.9   779.7    0.00       0    40.2
  25    2:30   36.4    71    4.4     7     14.2   779.7    0.00       0    40.1
  25    2:40   36.4    71    4.1   316     11.3   779.6    0.00       0    40.1
  25    2:50   36.7    70    4.7   309     11.6   779.6    0.00       0    40.0
  25    3:00   37.5    68    3.9   289      8.4   779.5    0.00       0    40.0
  25    3:10   38.0    66    3.9   318     10.3   779.5    0.00       0    39.9
  25    3:20   38.4    65    3.7   311      8.2   779.4    0.00       0    39.9
  25    3:30   38.5    65    4.0   304      9.2   779.4    0.00       0    39.8
  25    3:40   38.8    64    4.4   247      9.2   779.3    0.00       0    39.7
  25    3:50   38.8    64    3.6   244     10.9   779.3    0.00       0    39.7
  25    4:00   38.8    64    3.2   293      7.9   779.3    0.00       0    39.6
  25    4:10   38.7    64    3.5   281      7.9   779.3    0.00       0    39.6
  25    4:20   38.4    64    3.2   296     10.1   779.3    0.00       0    39.5
  25    4:30   38.6    63    3.4   255      8.0   779.3    0.00       0    39.5
  25    4:40   39.0    62    3.0   274      7.9   779.3    0.00       0    39.4
  25    4:50   39.1    61    3.7   340      9.7   779.3    0.00       0    39.4
  25    5:00   38.8    62    3.8   344      9.0   779.3    0.00       0    39.3
  25    5:10   38.6    63    3.4   328      9.0   779.3    0.00       0    39.3
  25    5:20   38.1    65    3.1   285      6.3   779.3    0.00       0    39.3
  25    5:30   38.2    64    2.8   277      6.7   779.4    0.00       0    39.2
  25    5:40   38.1    64    3.6     2      8.9   779.5    0.00       0    39.2
  25    5:50   37.8    65    4.0    20     11.7   779.5    0.00       0    39.1
  25    6:00   37.2    67    4.9    28     10.6   779.4    0.00       0    39.1
  25    6:10   37.2    67    5.9    24     11.3   779.5    0.00       0    39.0
  25    6:20   37.9    64    4.1    12     11.4   779.5    0.00       0    39.0
  25    6:30   38.5    63    3.4    11     10.9   779.7    0.00       0    39.0
  25    6:40   38.7    63    5.6    38     12.5   779.8    0.00       1    38.9
  25    6:50   38.8    62    7.8    46     12.3   779.8    0.00       3    38.9
  25    7:00   38.7    63    9.2    50     14.9   779.8    0.00       6    38.9
  25    7:10   38.9    63   10.1    51     16.3   779.9    0.00      16    38.8
  25    7:20   40.2    59   11.3    58     15.3   780.0    0.00      36    38.8
  25    7:30   40.4    60   11.0    64     14.2   780.1    0.00      64    38.7
  25    7:40   40.0    61   10.6    55     14.8   780.1    0.00      99    38.7
  25    7:50   39.0    64    8.3    49     13.6   780.2    0.00     135    38.7
  25    8:00   39.5    63    9.6    55     14.9   780.3    0.00     165    38.6
  25    8:10   39.4    63    8.7    51     13.0   780.3    0.00     193    38.6
  25    8:20   39.1    64    8.3    46     12.5   780.4    0.00     221    38.6
  25    8:30   40.9    58    7.2    34     12.6   780.4    0.00     250    38.6
  25    8:40   43.0    53    5.4    31     11.5   780.4    0.00     278    38.6
  25    8:50   41.8    57    7.8    45     12.0   780.5    0.00     306    38.6
  25    9:00   41.3    59    8.7    63     12.8   780.6    0.00     333    38.6
  25    9:10   41.2    59    8.5    56     12.2   780.7    0.00     360    38.7
  25    9:20   41.5    58    7.2    44     11.4   780.8    0.00     385    38.7
  25    9:30   41.3    58    7.1    43     10.3   780.9    0.00     409    38.8
  25    9:40   41.9    57    6.4    27      8.7   780.9    0.00     432    38.8
  25    9:50   42.5    55    6.8    35     10.6   781.0    0.00     454    38.9
  25   10:00   43.1    53    7.7    44     12.0   781.1    0.00     475    39.0
  25   10:10   43.8    52    6.5    37     10.5   781.1    0.00     494    39.1
  25   10:20   44.3    50    6.3    26     10.9   781.0    0.00     512    39.2
  25   10:30   45.2    48    6.3    13     12.2   780.9    0.00     528    39.4
  25   10:40   46.6    44    5.8    24     13.1   780.8    0.00     543    39.5
  25   10:50   46.6    44    7.7    18     17.0   780.6    0.00     557    39.7
  25   11:00   47.1    43    7.3    30     16.0   780.6    0.00     568    39.8
  25   11:10   48.0    42    6.0    48     12.6   780.7    0.00     577    40.0
  25   11:20   48.7    41    2.9    30      9.1   780.6    0.00     586    40.2
  25   11:30   49.1    39    4.2    11     14.1   780.3    0.00     592    40.4
  25   11:40   47.8    41    5.5    20     14.9   780.2    0.00     596    40.7
  25   11:50   48.0    41    6.6    45     16.2   780.2    0.00     599    40.9
  25   12:00   49.2    40    4.0   357     10.8   780.0    0.00     600    41.1
  25   12:10   48.8    40    5.7    30     11.7   779.9    0.00     600    41.4
  25   12:20   50.5    37    3.7    30     14.2   779.7    0.00     598    41.6
  25   12:30   49.7    38    7.0    25     16.7   779.4    0.00     593    41.9
  25   12:40   49.5    39    6.7    25     16.3   779.2    0.00     587    42.1
  25   12:50   50.5    38    5.8    37     11.5   779.2    0.00     580    42.4
  25   13:00   51.0    36    5.4    40     10.6   779.2    0.00     570    42.6
  25   13:10   50.6    37    5.6    39     14.7   779.1    0.00     558    42.9
  25   13:20   50.3    38    5.7    41     11.4   779.0    0.00     545    43.2
  25   13:30   50.1    39    6.8    41     13.4   779.0    0.00     531    43.4
  25   13:40   51.1    37    5.5    54      9.7   779.0    0.00     515    43.7
  25   13:50   51.8    36    9.0    58     16.9   779.0    0.00     497    44.0
  25   14:00   51.0    37    6.7    30     15.5   778.8    0.00     478    44.2
  25   14:10   51.8    35    5.8    21     12.5   778.7    0.00     458    44.5
  25   14:20   52.8    34    4.8    19     11.4   778.7    0.00     436    44.7
  25   14:30   53.5    33    4.5   345     11.8   778.7    0.00     413    44.9
  25   14:40   53.6    32    5.0    22     11.5   778.8    0.00     388    45.2
  25   14:50   54.6    32    3.2     4     10.3   778.9    0.00     363    45.4
  25   15:00   55.1    31    3.4    39      9.0   779.0    0.00     336    45.6
  25   15:10   55.2    30    3.5     6     10.1   779.0    0.00     309    45.8
  25   15:20   55.9    28    3.6   344     11.2   779.0    0.00     281    46.0
  25   15:30   56.1    28    3.5   354      8.4   779.0    0.00     253    46.2
  25   15:40   55.1    29    3.7    24      9.5   779.0    0.00     224    46.3
  25   15:50   54.2    30    4.5    20     10.2   778.8    0.00     195    46.5
  25   16:00   54.2    31    3.4   346      8.4   778.8    0.00     167    46.6
  25   16:10   54.0    31    2.9    12      6.8   778.8    0.00     137    46.7
  25   16:20   52.5    33    5.9    45     11.2   778.8    0.00     101    46.8
  25   16:30   51.3    34    9.3    57     12.5   778.8    0.00      65    46.9
  25   16:40   50.2    38    7.6    88      9.5   778.9    0.00      36    47.0
  25   16:50   49.7    39    9.1    96     12.8   778.8    0.00      15    47.1
  25   17:00   49.3    40   10.4    87     12.7   778.8    0.00       5    47.1
  25   17:10   49.0    40   10.1    90     11.6   778.8    0.00       2    47.2
  25   17:20   49.2    40    9.6    94     11.7   778.8    0.00       0    47.2
  25   17:30   49.2    39    9.3    91     11.5   778.8    0.00       0    47.2
  25   17:40   49.2    38   11.0    75     15.4   778.9    0.00       0    47.2
  25   17:50   49.3    37   12.3    68     18.3   779.0    0.00       0    47.2
  25   18:00   49.0    38   10.8    75     15.6   779.0    0.00       0    47.2
  25   18:10   48.3    39    9.7    78     11.7   779.2    0.00       0    47.1
  25   18:20   48.4    37    9.9    83     12.5   779.2    0.00       0    47.1
  25   18:30   48.4    37   10.2    80     12.9   779.3    0.00       0    47.0
  25   18:40   48.6    36    9.9    75     12.8   779.4    0.00       0    47.0
  25   18:50   48.6    36    9.3    78     13.6   779.5    0.00       0    46.9
  25   19:00   47.7    37    6.2    89     10.1   779.7    0.00       0    46.9
  25   19:10   47.4    37    6.1   104      7.6   779.8    0.00       0    46.8
  25   19:20   47.7    38    8.1    76     11.4   779.7    0.00       0    46.7
  25   19:30   48.0    38   10.1    53     13.0   779.5    0.00       0    46.7
  25   19:40   47.0    40    5.5    50     12.4   779.3    0.00       0    46.6
  25   19:50   47.3    40   11.4    60     14.3   779.4    0.00       0    46.5
  25   20:00   46.0    42    8.8    62     14.9   779.4    0.00       0    46.4
  25   20:10   46.0    42    7.1    49     14.3   779.4    0.00       0    46.3
  25   20:20   45.1    44    5.2    39      9.9   779.4    0.00       0    46.2
  25   20:30   45.5    43    7.6    48     12.0   779.4    0.00       0    46.1
  25   20:40   46.0    42    9.0    47     14.1   779.4    0.00       0    46.1
  25   20:50   45.9    43    9.7    50     15.2   779.3    0.00       0    46.0
  25   21:00   45.6    44    9.1    49     15.1   779.3    0.00       0    45.9
  25   21:10   45.1    44    7.2    43     12.5   779.3    0.00       0    45.8
  25   21:20   45.0    43    7.4    39     12.8   779.3    0.00       0    45.7
  25   21:30   45.0    43    5.7    28     10.6   779.3    0.00       0    45.6
  25   21:40   44.9    43    8.0    36     14.5   779.4    0.00       0    45.5
  25   21:50   44.4    44    5.1    15     10.1   779.3    0.00       0    45.4
  25   22:00   44.3    44    6.0    16     12.3   779.3    0.00       0    45.4
  25   22:10   44.9    43    7.3    17     12.7   779.3    0.00       0    45.3
  25   22:20   45.4    42    7.8    30     13.1   779.3    0.00       0    45.2
  25   22:30   45.6    42    7.4    34     14.9   779.3    0.00       0    45.1
  25   22:40   45.4    42    9.7    46     15.0   779.3    0.00       0    45.0
  25   22:50   45.0    42    6.4    32     13.0   779.3    0.00       0    44.9
  25   23:00   44.7    43    5.9    26     11.4   779.2    0.00       0    44.9
  25   23:10   44.5    43    5.1    21     13.8   779.2    0.00       0    44.8
  25   23:20   44.5    43    8.2    37     13.5   779.1    0.00       0    44.7
  25   23:30   44.6    43    7.7    32     16.3   779.0    0.00       0    44.6
  25   23:40   44.3    44    6.8    27     13.7   778.9    0.00       0    44.5
  25   23:50   43.1    46    6.5    17     16.3   778.7    0.00       0    44.5
  26    0:00   42.9    46    7.3    28     13.3   778.7    0.00       0    44.4
  26    0:10   42.5    47    6.6    22     14.1   778.7    0.00       0    44.3
  26    0:20   42.4    47    5.5    11     11.7   778.7    0.00       0    44.2
  26    0:30   42.7    46    8.8    22     18.8   778.7    0.00       0    44.2
  26    0:40   43.0    46    6.7    11     15.5   778.7    0.00       0    44.1
  26    0:50   43.9    44    8.2    17     17.7   778.6    0.00       0    44.0

Return to Warm Springs Summit, Nevada graphs page.


Western Regional Climate Center,wrcc@dri.edu